createdAt,value
2018-03-20T00:01:17.031Z,0.10
2018-03-20T00:03:44.448Z,0.10
2018-03-20T00:06:11.867Z,0.10
2018-03-20T00:08:40.211Z,0.00
2018-03-20T00:11:07.632Z,0.00
2018-03-20T00:13:35.056Z,0.00
2018-03-20T00:16:03.275Z,0.00
2018-03-20T00:18:31.628Z,0.00
2018-03-20T00:20:59.139Z,0.00
2018-03-20T00:23:26.556Z,0.00
2018-03-20T00:25:54.080Z,0.10
2018-03-20T00:28:21.496Z,0.10
2018-03-20T00:30:49.020Z,0.00
2018-03-20T00:33:16.436Z,0.00
2018-03-20T00:35:43.956Z,0.00
2018-03-20T00:38:11.425Z,0.00
2018-03-20T00:40:38.897Z,0.00
2018-03-20T00:43:06.312Z,0.00
2018-03-20T00:45:33.747Z,-0.10
2018-03-20T00:48:01.200Z,-0.10
2018-03-20T00:50:28.672Z,-0.10
2018-03-20T00:52:56.092Z,-0.10
2018-03-20T00:55:23.628Z,-0.10
2018-03-20T00:57:51.052Z,-0.10
2018-03-20T01:00:19.270Z,-0.10
2018-03-20T01:02:47.444Z,-0.10
2018-03-20T01:05:14.932Z,-0.10
2018-03-20T01:07:42.352Z,-0.10
2018-03-20T01:10:09.977Z,-0.10
2018-03-20T01:12:37.440Z,-0.10
2018-03-20T01:15:04.860Z,-0.20
2018-03-20T01:17:32.318Z,-0.10
2018-03-20T01:19:59.709Z,-0.20
2018-03-20T01:22:27.136Z,-0.20
2018-03-20T01:24:54.556Z,-0.20
2018-03-20T01:27:22.768Z,-0.20
2018-03-20T01:29:50.196Z,-0.20
2018-03-20T01:32:17.713Z,-0.20
2018-03-20T01:34:45.131Z,-0.20
2018-03-20T01:37:12.586Z,-0.30
2018-03-20T01:39:40.033Z,-0.30
2018-03-20T01:42:07.461Z,-0.30
2018-03-20T01:44:35.680Z,-0.40
2018-03-20T01:47:03.116Z,-0.40
2018-03-20T01:49:31.295Z,-0.40
2018-03-20T01:51:58.811Z,-0.40
2018-03-20T01:54:26.378Z,-0.40
2018-03-20T01:56:54.568Z,-0.40
2018-03-20T01:59:21.999Z,-0.50
2018-03-20T02:01:50.232Z,-0.50
2018-03-20T02:04:17.648Z,-0.50
2018-03-20T02:06:45.164Z,-0.50
2018-03-20T02:09:12.592Z,-0.60
2018-03-20T02:11:40.016Z,-0.60
2018-03-20T02:14:07.451Z,-0.60
2018-03-20T02:16:34.940Z,-0.60
2018-03-20T02:19:02.412Z,-0.60
2018-03-20T02:21:29.824Z,-0.70
2018-03-20T02:23:57.256Z,-0.70
2018-03-20T02:26:24.675Z,-0.70
2018-03-20T02:28:53.163Z,-0.80
2018-03-20T02:31:20.680Z,-0.80
2018-03-20T02:33:48.114Z,-0.80
2018-03-20T02:36:15.532Z,-0.80
2018-03-20T02:38:42.987Z,-0.80
2018-03-20T02:41:10.411Z,-0.90
2018-03-20T02:43:37.841Z,-0.90
2018-03-20T02:46:05.272Z,-0.90
2018-03-20T02:48:34.435Z,-1.00
2018-03-20T02:51:02.013Z,-1.00
2018-03-20T02:53:29.393Z,-1.00
2018-03-20T02:55:56.828Z,-1.00
2018-03-20T02:58:24.667Z,-1.00
2018-03-20T03:00:52.884Z,-1.10
2018-03-20T03:03:20.296Z,-1.10
2018-03-20T03:05:47.725Z,-1.10
2018-03-20T03:08:15.157Z,-1.10
2018-03-20T03:10:43.357Z,-1.20
2018-03-20T03:13:11.556Z,-1.20
2018-03-20T03:15:39.056Z,-1.20
2018-03-20T03:18:06.476Z,-1.20
2018-03-20T03:20:33.971Z,-1.20
2018-03-20T03:23:01.441Z,-1.30
2018-03-20T03:25:28.910Z,-1.30
2018-03-20T03:27:56.336Z,-1.30
2018-03-20T03:30:23.849Z,-1.40
2018-03-20T03:32:51.317Z,-1.40
2018-03-20T03:35:19.491Z,-1.50
2018-03-20T03:37:46.918Z,-1.50
2018-03-20T03:40:14.331Z,-1.50
2018-03-20T03:42:41.763Z,-1.50
2018-03-20T03:45:09.188Z,-1.60
2018-03-20T03:47:36.612Z,-1.60
2018-03-20T03:50:04.804Z,-1.60
2018-03-20T03:52:33.028Z,-1.70
2018-03-20T03:55:00.447Z,-1.70
2018-03-20T03:57:27.963Z,-1.70
2018-03-20T03:59:55.385Z,-1.80
2018-03-20T04:02:22.900Z,-1.80
2018-03-20T04:04:50.475Z,-1.80
2018-03-20T04:07:18.647Z,-1.90
2018-03-20T04:09:46.072Z,-1.90
2018-03-20T04:12:13.497Z,-1.90
2018-03-20T04:14:40.920Z,-1.90
2018-03-20T04:17:08.440Z,-2.00
2018-03-20T04:19:35.856Z,-2.00
2018-03-20T04:22:03.377Z,-2.00
2018-03-20T04:24:31.560Z,-2.10
2018-03-20T04:26:58.984Z,-2.10
2018-03-20T04:29:26.459Z,-2.10
2018-03-20T04:31:53.836Z,-2.10
2018-03-20T04:34:21.264Z,-2.10
2018-03-20T04:36:48.712Z,-2.20
2018-03-20T04:39:16.147Z,-2.20
2018-03-20T04:41:44.368Z,-2.30
2018-03-20T04:44:11.795Z,-2.30
2018-03-20T04:46:39.313Z,-2.30
2018-03-20T04:49:06.777Z,-2.40
2018-03-20T04:51:34.200Z,-2.40
2018-03-20T04:54:05.211Z,-2.40
2018-03-20T04:56:32.667Z,-2.40
2018-03-20T04:59:00.092Z,-2.50
2018-03-20T05:01:27.516Z,-2.50
2018-03-20T05:03:54.976Z,-2.50
2018-03-20T05:06:22.449Z,-2.60
2018-03-20T05:08:50.839Z,-2.60
2018-03-20T05:11:18.260Z,-2.60
2018-03-20T05:13:45.804Z,-2.70
2018-03-20T05:16:13.215Z,-2.70
2018-03-20T05:18:41.835Z,-2.70
2018-03-20T05:21:15.038Z,-2.80
2018-03-20T05:24:02.197Z,-2.80
2018-03-20T05:26:29.624Z,-2.80
2018-03-20T05:28:57.861Z,-2.80
2018-03-20T05:31:25.264Z,-2.80
2018-03-20T05:33:52.680Z,-2.80
2018-03-20T05:36:20.112Z,-2.80
2018-03-20T05:38:49.292Z,-2.90
2018-03-20T05:41:16.724Z,-2.90
2018-03-20T05:43:44.151Z,-2.90
2018-03-20T05:46:11.580Z,-2.90
2018-03-20T05:48:45.903Z,-2.90
2018-03-20T05:51:27.140Z,-2.90
2018-03-20T05:53:54.560Z,-2.80
2018-03-20T05:56:21.984Z,-2.80
2018-03-20T05:58:49.404Z,-2.80
2018-03-20T06:01:16.840Z,-2.80
2018-03-20T06:03:45.064Z,-2.80
2018-03-20T06:06:12.538Z,-2.80
2018-03-20T06:08:40.124Z,-2.70
2018-03-20T06:11:07.560Z,-2.70
2018-03-20T06:13:35.028Z,-2.70
2018-03-20T06:16:02.479Z,-2.60
2018-03-20T06:18:30.823Z,-2.60
2018-03-20T06:20:58.363Z,-2.60
2018-03-20T06:23:25.784Z,-2.50
2018-03-20T06:25:53.211Z,-2.50
2018-03-20T06:28:20.649Z,-2.40
2018-03-20T06:30:48.840Z,-2.30
2018-03-20T06:33:16.264Z,-2.30
2018-03-20T06:35:43.684Z,-2.20
2018-03-20T06:38:11.176Z,-2.10
2018-03-20T06:40:38.634Z,-2.00
2018-03-20T06:43:06.097Z,-1.90
2018-03-20T06:45:33.583Z,-1.70
2018-03-20T06:48:00.997Z,-1.60
2018-03-20T06:50:28.419Z,-1.50
2018-03-20T06:52:55.877Z,-1.40
2018-03-20T06:55:23.304Z,-1.20
2018-03-20T06:57:50.737Z,-1.20
2018-03-20T07:00:18.189Z,-1.10
2018-03-20T07:02:45.612Z,-1.00
2018-03-20T07:05:13.036Z,-0.90
2018-03-20T07:07:40.494Z,-0.80
2018-03-20T07:10:07.968Z,-0.70
2018-03-20T07:12:35.432Z,-0.60
2018-03-20T07:15:02.907Z,-0.50
2018-03-20T07:17:30.337Z,-0.40
2018-03-20T07:19:58.560Z,-0.20
2018-03-20T07:22:25.995Z,-0.20
2018-03-20T07:24:54.220Z,-0.10
2018-03-20T07:27:21.649Z,-0.10
2018-03-20T07:29:49.152Z,0.00
2018-03-20T07:32:16.597Z,0.00
2018-03-20T07:34:44.103Z,0.00
2018-03-20T07:37:11.520Z,0.10
2018-03-20T07:39:39.041Z,0.20
2018-03-20T07:42:06.508Z,0.30
2018-03-20T07:44:33.924Z,0.40
2018-03-20T07:47:01.456Z,0.50
2018-03-20T07:49:28.864Z,0.60
2018-03-20T07:51:56.278Z,0.60
2018-03-20T07:54:23.751Z,0.70
2018-03-20T07:56:51.164Z,0.80
2018-03-20T07:59:18.592Z,0.80
2018-03-20T08:01:46.012Z,0.80
2018-03-20T08:04:13.528Z,0.80
2018-03-20T08:06:40.949Z,0.70
2018-03-20T08:09:08.368Z,0.70
2018-03-20T08:11:35.836Z,0.60
2018-03-20T08:14:03.408Z,0.70
2018-03-20T08:16:31.592Z,0.70
2018-03-20T08:18:59.923Z,0.70
2018-03-20T08:21:27.375Z,0.70
2018-03-20T08:23:54.772Z,0.80
2018-03-20T08:26:22.192Z,0.80
2018-03-20T08:28:49.603Z,0.90
2018-03-20T08:31:18.568Z,0.90
2018-03-20T08:33:46.037Z,0.90
2018-03-20T08:36:13.460Z,0.90
2018-03-20T08:38:40.872Z,1.00
2018-03-20T08:41:08.297Z,1.00
2018-03-20T08:43:35.716Z,1.00
2018-03-20T08:46:03.136Z,1.00
2018-03-20T08:48:30.560Z,1.00
2018-03-20T08:50:58.036Z,1.00
2018-03-20T08:53:25.448Z,1.00
2018-03-20T08:55:52.955Z,1.00
2018-03-20T08:58:20.425Z,1.00
2018-03-20T09:00:47.899Z,1.00
2018-03-20T09:03:15.315Z,1.00
2018-03-20T09:05:42.739Z,1.10
2018-03-20T09:08:10.157Z,1.00
2018-03-20T09:10:37.574Z,1.00
2018-03-20T09:13:05.051Z,1.10
2018-03-20T09:15:32.467Z,1.20
2018-03-20T09:17:59.896Z,1.20
2018-03-20T09:20:27.315Z,1.30
2018-03-20T09:22:55.512Z,1.30
2018-03-20T09:25:23.692Z,1.40
2018-03-20T09:27:51.895Z,1.40
2018-03-20T09:30:20.072Z,1.50
2018-03-20T09:32:48.268Z,1.50
2018-03-20T09:35:15.748Z,1.50
2018-03-20T09:37:43.225Z,1.50
2018-03-20T09:40:10.640Z,1.60
2018-03-20T09:42:38.073Z,1.60
2018-03-20T09:45:05.524Z,1.70
2018-03-20T09:47:33.009Z,1.80
2018-03-20T09:50:00.439Z,1.90
2018-03-20T09:52:28.632Z,2.10
2018-03-20T09:54:56.813Z,2.20
2018-03-20T09:57:25.008Z,2.30
2018-03-20T09:59:53.187Z,2.60
2018-03-20T10:02:21.393Z,3.30
2018-03-20T10:04:48.808Z,3.30
2018-03-20T10:07:16.227Z,4.10
2018-03-20T10:09:43.708Z,4.50
2018-03-20T10:12:11.185Z,5.00
2018-03-20T10:14:38.644Z,5.60
2018-03-20T10:17:06.060Z,5.70
2018-03-20T10:19:33.620Z,5.50
2018-03-20T10:22:01.005Z,5.30
2018-03-20T10:24:28.432Z,5.00
2018-03-20T10:26:55.844Z,4.90
2018-03-20T10:29:23.273Z,4.70
2018-03-20T10:31:50.735Z,4.40
2018-03-20T10:34:18.156Z,4.20
2018-03-20T10:36:45.672Z,4.10
2018-03-20T10:39:13.150Z,4.10
2018-03-20T10:41:40.555Z,4.00
2018-03-20T10:44:07.978Z,3.90
2018-03-20T10:46:35.453Z,3.80
2018-03-20T10:49:02.939Z,3.80
2018-03-20T10:51:30.392Z,3.90
2018-03-20T10:53:57.816Z,3.90
2018-03-20T10:56:25.337Z,4.00
2018-03-20T10:58:52.755Z,4.10
2018-03-20T11:01:25.968Z,4.10
2018-03-20T11:03:53.388Z,4.10
2018-03-20T11:06:20.848Z,4.20
2018-03-20T11:08:48.265Z,4.30
2018-03-20T11:11:15.692Z,4.40
2018-03-20T11:13:43.108Z,4.50
2018-03-20T11:16:10.530Z,4.60
2018-03-20T11:18:37.952Z,4.70
2018-03-20T11:21:06.148Z,4.80
2018-03-20T11:23:34.337Z,4.90
2018-03-20T11:26:02.523Z,4.90
2018-03-20T11:28:30.732Z,5.00
2018-03-20T11:30:58.164Z,4.90
2018-03-20T11:33:25.589Z,5.10
2018-03-20T11:35:53.044Z,5.30
2018-03-20T11:38:21.228Z,5.40
2018-03-20T11:40:48.679Z,5.30
2018-03-20T11:43:16.847Z,5.60
2018-03-20T11:45:45.035Z,5.80
2018-03-20T11:48:13.268Z,6.00
2018-03-20T11:50:40.696Z,6.00
2018-03-20T11:53:09.124Z,6.30
2018-03-20T11:55:36.544Z,6.50
2018-03-20T11:58:04.036Z,6.50
2018-03-20T12:00:32.226Z,6.10
2018-03-20T12:03:00.432Z,6.00
2018-03-20T12:05:27.855Z,6.00
2018-03-20T12:07:55.376Z,5.80
2018-03-20T12:10:22.841Z,5.70
2018-03-20T12:12:50.272Z,5.70
2018-03-20T12:15:17.696Z,5.90
2018-03-20T12:17:45.123Z,6.20
2018-03-20T12:20:13.342Z,6.80
2018-03-20T12:22:40.806Z,6.80
2018-03-20T12:25:08.229Z,6.70
2018-03-20T12:27:35.752Z,6.40
2018-03-20T12:30:03.182Z,6.00
2018-03-20T12:32:30.604Z,5.90
2018-03-20T12:34:58.060Z,6.00
2018-03-20T12:37:25.480Z,6.70
2018-03-20T12:39:52.991Z,7.90
2018-03-20T12:42:20.477Z,8.40
2018-03-20T12:44:47.892Z,8.20
2018-03-20T12:47:15.404Z,8.00
2018-03-20T12:49:42.876Z,7.60
2018-03-20T12:52:10.291Z,7.10
2018-03-20T12:54:37.746Z,6.60
2018-03-20T12:57:05.180Z,6.20
2018-03-20T12:59:32.604Z,5.90
2018-03-20T13:02:00.028Z,5.60
2018-03-20T13:04:27.460Z,5.40
2018-03-20T13:06:55.648Z,5.10
2018-03-20T13:09:23.840Z,5.00
2018-03-20T13:11:52.024Z,5.00
2018-03-20T13:14:20.224Z,4.90
2018-03-20T13:16:47.700Z,4.90
2018-03-20T13:19:15.153Z,4.80
2018-03-20T13:21:42.650Z,4.70
2018-03-20T13:24:10.073Z,4.70
2018-03-20T13:26:37.584Z,4.60
2018-03-20T13:29:05.004Z,4.50
2018-03-20T13:31:32.521Z,4.40
2018-03-20T13:33:59.940Z,4.30
2018-03-20T13:36:27.364Z,4.20
2018-03-20T13:38:54.832Z,4.10
2018-03-20T13:41:22.260Z,4.00
2018-03-20T13:43:49.683Z,4.00
2018-03-20T13:46:17.108Z,3.90
2018-03-20T13:48:45.292Z,3.90
2018-03-20T13:51:13.497Z,3.90
2018-03-20T13:53:40.985Z,3.90
2018-03-20T13:56:08.448Z,4.00
2018-03-20T13:58:35.868Z,4.10
2018-03-20T14:01:04.064Z,4.10
2018-03-20T14:03:31.579Z,4.10
2018-03-20T14:05:59.008Z,4.20
2018-03-20T14:08:27.436Z,4.20
2018-03-20T14:10:54.867Z,4.30
2018-03-20T14:13:22.308Z,4.40
2018-03-20T14:15:49.713Z,4.50
2018-03-20T14:18:17.935Z,4.60
2018-03-20T14:20:45.404Z,4.50
2018-03-20T14:23:12.840Z,4.60
2018-03-20T14:25:41.062Z,4.60
2018-03-20T14:28:08.487Z,4.60
2018-03-20T14:30:35.999Z,4.70
2018-03-20T14:33:03.472Z,4.70
2018-03-20T14:35:30.947Z,4.80
2018-03-20T14:37:58.395Z,4.90
2018-03-20T14:40:26.571Z,4.90
2018-03-20T14:42:54.766Z,4.90
2018-03-20T14:45:22.947Z,4.90
2018-03-20T14:47:51.144Z,4.90
2018-03-20T14:50:18.561Z,4.90
2018-03-20T14:52:46.016Z,4.90
2018-03-20T14:55:13.468Z,5.00
2018-03-20T14:57:41.668Z,5.00
2018-03-20T15:00:09.224Z,5.00
2018-03-20T15:02:36.699Z,5.00
2018-03-20T15:05:04.137Z,5.00
2018-03-20T15:07:31.636Z,5.00
2018-03-20T15:09:59.052Z,5.00
2018-03-20T15:12:26.514Z,4.90
2018-03-20T15:14:53.943Z,4.90
2018-03-20T15:17:21.360Z,5.00
2018-03-20T15:19:48.787Z,4.90
2018-03-20T15:22:16.257Z,4.90
2018-03-20T15:24:43.723Z,4.90
2018-03-20T15:27:11.136Z,4.90
2018-03-20T15:29:38.565Z,4.90
2018-03-20T15:32:05.975Z,4.90
2018-03-20T15:34:33.496Z,4.90
2018-03-20T15:37:00.947Z,4.90
2018-03-20T15:39:29.112Z,4.90
2018-03-20T15:41:58.036Z,4.90
2018-03-20T15:44:26.244Z,4.90
2018-03-20T15:46:53.660Z,4.80
2018-03-20T15:49:21.080Z,4.80
2018-03-20T15:51:48.500Z,4.80
2018-03-20T15:54:16.684Z,4.80
2018-03-20T15:56:44.105Z,4.80
2018-03-20T15:59:11.523Z,4.70
2018-03-20T16:01:38.948Z,4.80
2018-03-20T16:04:06.384Z,4.70
2018-03-20T16:06:34.568Z,4.70
2018-03-20T16:09:02.748Z,4.60
2018-03-20T16:11:30.177Z,4.60
2018-03-20T16:13:57.592Z,4.50
2018-03-20T16:16:25.793Z,4.40
2018-03-20T16:18:53.997Z,4.40
2018-03-20T16:21:21.464Z,4.40
2018-03-20T16:23:48.876Z,4.50
2018-03-20T16:26:16.306Z,4.50
2018-03-20T16:28:43.724Z,4.50
2018-03-20T16:31:11.143Z,4.50
2018-03-20T16:33:38.560Z,4.50
2018-03-20T16:36:05.979Z,4.50
2018-03-20T16:38:34.492Z,4.50
2018-03-20T16:41:01.947Z,4.50
2018-03-20T16:43:29.356Z,4.50
2018-03-20T16:45:56.903Z,4.50
2018-03-20T16:48:24.323Z,4.50
2018-03-20T16:50:52.504Z,4.40
2018-03-20T16:53:19.916Z,4.40
2018-03-20T16:55:47.380Z,4.40
2018-03-20T16:58:14.791Z,4.40
2018-03-20T17:00:42.319Z,4.30
2018-03-20T17:03:09.764Z,4.30
2018-03-20T17:05:37.193Z,4.30
2018-03-20T17:08:04.616Z,4.30
2018-03-20T17:10:32.032Z,4.30
2018-03-20T17:12:59.500Z,4.30
2018-03-20T17:15:26.914Z,4.30
2018-03-20T17:17:55.118Z,4.20
2018-03-20T17:20:22.551Z,4.20
2018-03-20T17:22:49.960Z,4.20
2018-03-20T17:25:17.425Z,4.20
2018-03-20T17:27:44.844Z,4.20
2018-03-20T17:30:12.266Z,4.10
2018-03-20T17:32:39.684Z,4.10
2018-03-20T17:35:07.105Z,4.10
2018-03-20T17:37:34.567Z,4.10
2018-03-20T17:40:02.147Z,4.10
2018-03-20T17:42:29.563Z,4.00
2018-03-20T17:44:56.979Z,4.00
2018-03-20T17:47:24.391Z,3.90
2018-03-20T17:49:51.936Z,3.90
2018-03-20T17:52:19.392Z,3.90
2018-03-20T17:54:46.812Z,3.90
2018-03-20T17:57:15.047Z,3.80
2018-03-20T17:59:42.470Z,3.80
2018-03-20T18:02:09.893Z,3.80
2018-03-20T18:04:37.316Z,3.70
2018-03-20T18:07:05.495Z,3.60
2018-03-20T18:09:33.009Z,3.60
2018-03-20T18:12:00.440Z,3.60
2018-03-20T18:14:27.859Z,3.60
2018-03-20T18:16:55.272Z,3.50
2018-03-20T18:19:22.687Z,3.40
2018-03-20T18:21:50.108Z,3.40
2018-03-20T18:24:17.527Z,3.40
2018-03-20T18:26:44.960Z,3.30
2018-03-20T18:29:13.160Z,3.20
2018-03-20T18:31:40.572Z,3.20
2018-03-20T18:34:07.993Z,3.20
2018-03-20T18:36:36.176Z,3.10
2018-03-20T18:39:04.377Z,3.00
2018-03-20T18:41:31.860Z,3.00
2018-03-20T18:43:59.286Z,2.90
2018-03-20T18:46:26.809Z,2.90
2018-03-20T18:48:54.229Z,2.80
2018-03-20T18:51:21.656Z,2.80
2018-03-20T18:53:49.108Z,2.70
2018-03-20T18:56:16.528Z,2.70
2018-03-20T18:58:44.048Z,2.60
2018-03-20T19:01:11.467Z,2.60
2018-03-20T19:03:38.885Z,2.60
2018-03-20T19:06:06.308Z,2.60
2018-03-20T19:08:34.752Z,2.50
2018-03-20T19:11:02.225Z,2.50
2018-03-20T19:13:29.638Z,2.50
2018-03-20T19:15:57.052Z,2.40
2018-03-20T19:18:24.524Z,2.40
2018-03-20T19:20:51.939Z,2.30
2018-03-20T19:23:19.368Z,2.30
2018-03-20T19:25:46.787Z,2.30
2018-03-20T19:28:14.308Z,2.20
2018-03-20T19:30:41.772Z,2.20
2018-03-20T19:33:09.199Z,2.20
2018-03-20T19:35:36.718Z,2.10
2018-03-20T19:38:04.184Z,2.10
2018-03-20T19:40:31.608Z,2.00
2018-03-20T19:42:59.223Z,2.00
2018-03-20T19:45:26.690Z,2.00
2018-03-20T19:47:54.160Z,2.00
2018-03-20T19:50:21.579Z,1.90
2018-03-20T19:52:49.106Z,1.90
2018-03-20T19:55:16.576Z,1.90
2018-03-20T19:57:44.044Z,1.90
2018-03-20T20:00:11.467Z,1.80
2018-03-20T20:02:38.980Z,1.80
2018-03-20T20:05:06.404Z,1.80
2018-03-20T20:07:33.940Z,1.70
2018-03-20T20:10:01.394Z,1.70
2018-03-20T20:12:28.960Z,1.70
2018-03-20T20:14:57.128Z,1.60
2018-03-20T20:17:25.308Z,1.60
2018-03-20T20:19:53.507Z,1.60
2018-03-20T20:22:21.688Z,1.60
2018-03-20T20:24:49.880Z,1.50
2018-03-20T20:27:18.080Z,1.50
2018-03-20T20:29:45.522Z,1.50
2018-03-20T20:32:13.024Z,1.50
2018-03-20T20:34:40.646Z,1.50
2018-03-20T20:37:08.033Z,1.40
2018-03-20T20:39:35.536Z,1.40
2018-03-20T20:42:03.015Z,1.40
2018-03-20T20:44:30.479Z,1.40
2018-03-20T20:46:57.908Z,1.40
2018-03-20T20:49:25.423Z,1.30
2018-03-20T20:51:52.857Z,1.30
2018-03-20T20:54:21.036Z,1.30
2018-03-20T20:56:48.468Z,1.30
2018-03-20T20:59:15.885Z,1.20
2018-03-20T21:01:44.080Z,1.20
2018-03-20T21:04:12.286Z,1.20
2018-03-20T21:06:39.756Z,1.20
2018-03-20T21:09:07.172Z,1.20
2018-03-20T21:11:34.695Z,1.20
2018-03-20T21:14:02.172Z,1.20
2018-03-20T21:16:29.640Z,1.20
2018-03-20T21:18:57.056Z,1.20
2018-03-20T21:21:24.572Z,1.20
2018-03-20T21:23:51.992Z,1.10
2018-03-20T21:26:19.516Z,1.10
2018-03-20T21:28:46.944Z,1.10
2018-03-20T21:31:14.380Z,1.10
2018-03-20T21:33:41.818Z,1.10
2018-03-20T21:36:09.387Z,1.10
2018-03-20T21:38:36.827Z,1.10
2018-03-20T21:41:04.239Z,1.10
2018-03-20T21:43:31.704Z,1.00
2018-03-20T21:45:59.177Z,1.00
2018-03-20T21:48:26.603Z,1.00
2018-03-20T21:50:54.025Z,0.90
2018-03-20T21:53:21.457Z,0.90
2018-03-20T21:55:49.640Z,0.90
2018-03-20T21:58:17.832Z,0.80
2018-03-20T22:00:46.044Z,0.80
2018-03-20T22:03:13.472Z,0.80
2018-03-20T22:05:40.896Z,0.80
2018-03-20T22:08:08.329Z,0.70
2018-03-20T22:10:36.517Z,0.70
2018-03-20T22:13:04.824Z,0.70
2018-03-20T22:15:32.251Z,0.70
2018-03-20T22:17:59.764Z,0.70
2018-03-20T22:20:27.191Z,0.70
2018-03-20T22:22:54.701Z,0.60
2018-03-20T22:25:22.878Z,0.60
2018-03-20T22:27:50.306Z,0.60
2018-03-20T22:30:17.828Z,0.60
2018-03-20T22:32:45.244Z,0.60
2018-03-20T22:35:12.680Z,0.70
2018-03-20T22:37:40.097Z,0.60
2018-03-20T22:40:07.524Z,0.60
2018-03-20T22:42:34.950Z,0.60
2018-03-20T22:45:03.224Z,0.60
2018-03-20T22:47:30.586Z,0.60
2018-03-20T22:49:58.772Z,0.60
2018-03-20T22:52:26.187Z,0.60
2018-03-20T22:54:53.620Z,0.60
2018-03-20T22:57:21.809Z,0.60
2018-03-20T22:59:50.024Z,0.60
2018-03-20T23:02:17.495Z,0.60
2018-03-20T23:04:44.972Z,0.60
2018-03-20T23:07:12.540Z,0.60
2018-03-20T23:09:39.973Z,0.60
2018-03-20T23:12:07.489Z,0.60
2018-03-20T23:14:34.948Z,0.70
2018-03-20T23:17:02.377Z,0.60
2018-03-20T23:19:29.792Z,0.60
2018-03-20T23:21:57.260Z,0.60
2018-03-20T23:24:24.684Z,0.60
2018-03-20T23:26:52.196Z,0.60
2018-03-20T23:29:19.616Z,0.60
2018-03-20T23:31:47.048Z,0.70
2018-03-20T23:34:14.509Z,0.60
2018-03-20T23:36:41.969Z,0.60
2018-03-20T23:39:09.397Z,0.60
2018-03-20T23:41:36.821Z,0.50
2018-03-20T23:44:04.280Z,0.50
2018-03-20T23:46:31.748Z,0.50
2018-03-20T23:48:59.175Z,0.50
2018-03-20T23:51:26.688Z,0.40
2018-03-20T23:53:54.108Z,0.40
2018-03-20T23:56:21.540Z,0.40
2018-03-20T23:58:48.959Z,0.40
